createdAt,value
2019-03-02T00:01:37.464Z,100608.00
2019-03-02T00:04:10.147Z,100603.30
2019-03-02T00:06:38.736Z,100602.23
2019-03-02T00:09:08.659Z,100595.66
2019-03-02T00:11:38.368Z,100600.00
2019-03-02T00:14:08.039Z,100594.55
2019-03-02T00:16:39.789Z,100596.86
2019-03-02T00:19:09.185Z,100595.63
2019-03-02T00:21:38.867Z,100592.67
2019-03-02T00:24:08.392Z,100593.06
2019-03-02T00:26:38.180Z,100593.34
2019-03-02T00:29:11.011Z,100587.95
2019-03-02T00:31:39.138Z,100582.77
2019-03-02T00:34:08.769Z,100586.27
2019-03-02T00:36:38.548Z,100591.93
2019-03-02T00:39:08.157Z,100583.46
2019-03-02T00:41:38.703Z,100588.95
2019-03-02T00:44:09.140Z,100587.52
2019-03-02T00:46:38.912Z,100594.53
2019-03-02T00:49:08.615Z,100603.23
2019-03-02T00:51:38.228Z,100601.28
2019-03-02T00:54:11.415Z,100599.81
2019-03-02T00:56:39.891Z,100603.89
2019-03-02T00:59:10.592Z,100605.34
2019-03-02T01:01:40.162Z,100598.63
2019-03-02T01:04:09.793Z,100596.44
2019-03-02T01:06:39.425Z,100594.75
2019-03-02T01:09:11.751Z,100593.17
2019-03-02T01:11:40.372Z,100597.16
2019-03-02T01:14:10.028Z,100591.73
2019-03-02T01:16:39.630Z,100595.00
2019-03-02T01:19:09.279Z,100596.45
2019-03-02T01:21:41.276Z,100590.17
2019-03-02T01:24:10.345Z,100587.13
2019-03-02T01:26:39.692Z,100587.02
2019-03-02T01:29:09.348Z,100581.82
2019-03-02T01:31:40.732Z,100582.56
2019-03-02T01:34:10.274Z,100574.62
2019-03-02T01:36:39.877Z,100573.41
2019-03-02T01:39:09.471Z,100564.02
2019-03-02T01:41:39.094Z,100557.91
2019-03-02T01:44:08.719Z,100553.52
2019-03-02T01:46:40.917Z,100552.67
2019-03-02T01:49:09.650Z,100549.88
2019-03-02T01:51:39.334Z,100550.70
2019-03-02T01:54:08.972Z,100544.63
2019-03-02T01:56:41.340Z,100539.13
2019-03-02T01:59:10.023Z,100542.27
2019-03-02T02:01:39.675Z,100538.28
2019-03-02T02:04:09.282Z,100538.41
2019-03-02T02:06:39.805Z,100544.22
2019-03-02T02:09:10.296Z,100543.95
2019-03-02T02:11:39.920Z,100544.95
2019-03-02T02:14:09.511Z,100536.27
2019-03-02T02:16:41.797Z,100541.44
2019-03-02T02:19:10.552Z,100547.25
2019-03-02T02:21:40.227Z,100550.73
2019-03-02T02:24:09.984Z,100546.51
2019-03-02T02:26:39.637Z,100538.17
2019-03-02T02:29:09.590Z,100539.25
2019-03-02T02:31:44.290Z,100536.14
2019-03-02T02:34:10.689Z,100544.13
2019-03-02T02:36:40.351Z,100534.70
2019-03-02T02:39:10.101Z,100538.77
2019-03-02T02:41:39.721Z,100541.95
2019-03-02T02:44:09.426Z,100539.55
2019-03-02T02:46:39.052Z,100532.61
2019-03-02T02:49:10.163Z,100525.36
2019-03-02T02:51:44.545Z,100516.21
2019-03-02T02:54:10.834Z,100517.43
2019-03-02T02:56:40.167Z,100511.24
2019-03-02T02:59:09.616Z,100510.40
2019-03-02T03:01:39.000Z,100513.78
2019-03-02T03:04:08.386Z,100517.67
2019-03-02T03:06:39.403Z,100509.81
2019-03-02T03:09:21.039Z,100513.44
2019-03-02T03:11:50.445Z,100507.84
2019-03-02T03:14:21.413Z,100506.00
2019-03-02T03:16:54.212Z,100509.62
2019-03-02T03:19:26.095Z,100508.86
2019-03-02T03:21:53.094Z,100507.53
2019-03-02T03:24:22.513Z,100511.75
2019-03-02T03:26:51.990Z,100509.34
2019-03-02T03:29:21.393Z,100510.19
2019-03-02T03:31:50.733Z,100504.71
2019-03-02T03:34:28.780Z,100503.84
2019-03-02T03:36:51.214Z,100509.84
2019-03-02T03:39:20.651Z,100513.17
2019-03-02T03:41:50.034Z,100506.91
2019-03-02T03:44:25.723Z,100511.48
2019-03-02T03:46:50.565Z,100504.33
2019-03-02T03:49:19.988Z,100503.00
2019-03-02T03:51:49.355Z,100508.86
2019-03-02T03:54:18.758Z,100505.00
2019-03-02T03:56:48.152Z,100500.42
2019-03-02T03:59:19.162Z,100498.57
2019-03-02T04:01:52.260Z,100493.63
2019-03-02T04:04:20.176Z,100498.70
2019-03-02T04:06:49.597Z,100503.12
2019-03-02T04:09:18.999Z,100503.05
2019-03-02T04:11:48.372Z,100498.21
2019-03-02T04:14:19.059Z,100495.94
2019-03-02T04:16:48.911Z,100494.61
2019-03-02T04:19:33.936Z,100498.80
2019-03-02T04:22:06.243Z,100492.73
2019-03-02T04:24:39.851Z,100491.41
2019-03-02T04:27:06.409Z,100494.34
2019-03-02T04:29:35.813Z,100488.30
2019-03-02T04:32:05.199Z,100497.46
2019-03-02T04:34:34.588Z,100496.38
2019-03-02T04:37:03.941Z,100494.19
2019-03-02T04:39:33.366Z,100490.45
2019-03-02T04:42:02.712Z,100489.94
2019-03-02T04:44:32.119Z,100491.66
2019-03-02T04:47:01.504Z,100491.42
2019-03-02T04:49:30.892Z,100490.92
2019-03-02T04:52:00.287Z,100485.33
2019-03-02T04:54:29.658Z,100481.72
2019-03-02T04:56:59.843Z,100476.44
2019-03-02T04:59:29.817Z,100481.55
2019-03-02T05:01:59.203Z,100477.65
2019-03-02T05:04:28.887Z,100483.09
2019-03-02T05:06:59.723Z,100474.40
2019-03-02T05:09:29.125Z,100470.27
2019-03-02T05:11:58.608Z,100462.51
2019-03-02T05:14:28.030Z,100459.13
2019-03-02T05:16:57.431Z,100463.11
2019-03-02T05:19:29.162Z,100449.70
2019-03-02T05:21:57.942Z,100448.10
2019-03-02T05:24:27.288Z,100448.37
2019-03-02T05:26:56.905Z,100444.64
2019-03-02T05:29:27.046Z,100449.95
2019-03-02T05:31:56.456Z,100453.11
2019-03-02T05:34:25.913Z,100455.03
2019-03-02T05:36:55.416Z,100452.62
2019-03-02T05:39:24.768Z,100448.75
2019-03-02T05:41:54.211Z,100447.31
2019-03-02T05:44:23.605Z,100440.81
2019-03-02T05:46:53.011Z,100440.67
2019-03-02T05:49:22.382Z,100445.52
2019-03-02T05:51:51.796Z,100441.19
2019-03-02T05:54:21.156Z,100440.18
2019-03-02T05:56:50.600Z,100439.95
2019-03-02T05:59:22.913Z,100439.73
2019-03-02T06:01:51.182Z,100435.97
2019-03-02T06:04:22.074Z,100439.45
2019-03-02T06:06:54.185Z,100435.25
2019-03-02T06:09:22.808Z,100435.70
2019-03-02T06:11:52.215Z,100435.61
2019-03-02T06:14:21.570Z,100435.49
2019-03-02T06:16:53.741Z,100431.73
2019-03-02T06:19:23.544Z,100429.19
2019-03-02T06:21:53.193Z,100437.27
2019-03-02T06:24:22.563Z,100440.03
2019-03-02T06:26:51.954Z,100434.86
2019-03-02T06:29:21.288Z,100436.66
2019-03-02T06:31:53.798Z,100433.30
2019-03-02T06:34:21.805Z,100437.28
2019-03-02T06:36:51.176Z,100443.57
2019-03-02T06:39:20.602Z,100438.13
2019-03-02T06:41:49.969Z,100434.63
2019-03-02T06:44:19.449Z,100431.75
2019-03-02T06:46:48.822Z,100435.86
2019-03-02T06:49:19.890Z,100425.83
2019-03-02T06:51:49.421Z,100425.33
2019-03-02T06:54:18.859Z,100431.13
2019-03-02T06:56:57.258Z,100429.55
2019-03-02T06:59:19.359Z,100431.50
2019-03-02T07:01:48.739Z,100428.48
2019-03-02T07:04:21.859Z,100429.02
2019-03-02T07:06:49.218Z,100430.94
2019-03-02T07:09:18.618Z,100431.42
2019-03-02T07:11:47.989Z,100429.02
2019-03-02T07:14:17.405Z,100428.55
2019-03-02T07:16:46.765Z,100426.27
2019-03-02T07:19:29.185Z,100430.02
2019-03-02T07:21:58.563Z,100432.42
2019-03-02T07:24:29.385Z,100432.14
2019-03-02T07:26:59.084Z,100433.05
2019-03-02T07:29:28.482Z,100425.39
2019-03-02T07:31:57.890Z,100425.27
2019-03-02T07:34:27.296Z,100430.03
2019-03-02T07:36:56.655Z,100424.61
2019-03-02T07:39:28.776Z,100414.44
2019-03-02T07:41:57.888Z,100422.14
2019-03-02T07:44:27.656Z,100421.56
2019-03-02T07:46:57.024Z,100423.55
2019-03-02T07:49:26.430Z,100423.08
2019-03-02T07:51:55.794Z,100428.86
2019-03-02T07:54:25.198Z,100429.36
2019-03-02T07:56:54.564Z,100429.73
2019-03-02T07:59:26.575Z,100435.52
2019-03-02T08:01:55.094Z,100433.30
2019-03-02T08:04:24.505Z,100426.62
2019-03-02T08:06:53.898Z,100434.67
2019-03-02T08:09:25.806Z,100431.16
2019-03-02T08:11:54.418Z,100427.11
2019-03-02T08:14:23.786Z,100429.12
2019-03-02T08:16:53.235Z,100431.62
2019-03-02T08:19:22.667Z,100423.48
2019-03-02T08:21:52.071Z,100425.64
2019-03-02T08:24:21.436Z,100425.48
2019-03-02T08:26:50.858Z,100414.57
2019-03-02T08:29:20.935Z,100416.69
2019-03-02T08:31:51.363Z,100418.34
2019-03-02T08:34:20.719Z,100418.55
2019-03-02T08:36:53.842Z,100418.32
2019-03-02T08:39:21.425Z,100417.16
2019-03-02T08:41:52.954Z,100417.16
2019-03-02T08:44:22.009Z,100409.95
2019-03-02T08:46:51.420Z,100422.59
2019-03-02T08:49:20.813Z,100413.03
2019-03-02T08:51:50.229Z,100417.19
2019-03-02T08:54:21.538Z,100412.00
2019-03-02T08:56:50.814Z,100413.64
2019-03-02T08:59:20.156Z,100414.11
2019-03-02T09:01:51.227Z,100418.86
2019-03-02T09:04:20.680Z,100415.36
2019-03-02T09:06:50.077Z,100413.52
2019-03-02T09:09:19.919Z,100423.67
2019-03-02T09:11:49.431Z,100416.47
2019-03-02T09:14:18.791Z,100416.87
2019-03-02T09:16:48.208Z,100410.83
2019-03-02T09:19:20.892Z,100409.66
2019-03-02T09:21:49.096Z,100412.14
2019-03-02T09:24:19.621Z,100404.56
2019-03-02T09:26:49.259Z,100411.46
2019-03-02T09:29:18.655Z,100414.69
2019-03-02T09:31:48.071Z,100414.08
2019-03-02T09:34:17.676Z,100411.42
2019-03-02T09:36:47.101Z,100404.32
2019-03-02T09:39:16.503Z,100408.84
2019-03-02T09:41:45.864Z,100409.05
2019-03-02T09:44:15.281Z,100401.77
2019-03-02T09:46:44.672Z,100403.92
2019-03-02T09:49:14.113Z,100405.11
2019-03-02T09:51:47.982Z,100409.28
2019-03-02T09:54:16.013Z,100409.20
2019-03-02T09:56:45.371Z,100409.64
2019-03-02T09:59:14.770Z,100408.73
2019-03-02T10:01:44.118Z,100411.55
2019-03-02T10:04:13.579Z,100404.66
2019-03-02T10:06:42.943Z,100405.72
2019-03-02T10:09:12.361Z,100396.47
2019-03-02T10:11:41.720Z,100407.44
2019-03-02T10:14:26.579Z,100409.36
2019-03-02T10:16:56.242Z,100411.50
2019-03-02T10:19:28.954Z,100403.85
2019-03-02T10:21:56.770Z,100403.03
2019-03-02T10:24:26.199Z,100400.81
2019-03-02T10:26:55.574Z,100398.77
2019-03-02T10:29:25.006Z,100392.50
2019-03-02T10:31:54.369Z,100396.57
2019-03-02T10:34:23.821Z,100385.53
2019-03-02T10:36:53.182Z,100383.53
2019-03-02T10:39:22.573Z,100389.66
2019-03-02T10:41:52.985Z,100388.42
2019-03-02T10:44:23.077Z,100389.02
2019-03-02T10:46:52.462Z,100381.34
2019-03-02T10:49:21.880Z,100388.74
2019-03-02T10:51:51.248Z,100387.77
2019-03-02T10:54:20.678Z,100386.88
2019-03-02T10:56:50.032Z,100387.71
2019-03-02T11:31:26.087Z,100359.77
2019-03-02T11:34:18.237Z,100361.25
2019-03-02T11:37:08.922Z,100358.27
2019-03-02T11:40:09.510Z,100360.01
2019-03-02T11:42:53.866Z,100354.53
2019-03-02T11:45:54.465Z,100352.61
2019-03-02T11:48:31.548Z,100350.54
2019-03-02T11:51:11.141Z,100345.87
2019-03-02T11:54:17.467Z,100345.44
2019-03-02T11:57:04.324Z,100340.55
2019-03-02T11:59:59.769Z,100344.45
2019-03-02T12:02:42.272Z,100340.47
2019-03-02T12:05:42.844Z,100337.58
2019-03-02T12:08:43.070Z,100335.83
2019-03-02T12:11:42.891Z,100325.48
2019-03-02T12:14:48.897Z,100315.39
2019-03-02T12:17:41.033Z,100324.79
2019-03-02T12:20:45.303Z,100322.13
2019-03-02T12:23:34.146Z,100320.86
2019-03-02T12:26:13.123Z,100316.39
2019-03-02T12:28:59.975Z,100308.91
2019-03-02T12:31:47.233Z,100302.20
2019-03-02T12:34:22.346Z,100299.78
2019-03-02T12:37:00.004Z,100298.75
2019-03-02T12:39:50.368Z,100296.69
2019-03-02T12:42:50.750Z,100287.30
2019-03-02T12:45:29.973Z,100282.22
2019-03-02T12:48:21.937Z,100283.30
2019-03-02T12:51:10.153Z,100276.36
2019-03-02T12:54:06.103Z,100278.88
2019-03-02T12:56:54.492Z,100271.53
2019-03-02T12:59:41.745Z,100270.53
2019-03-02T13:02:28.626Z,100262.39
2019-03-02T13:05:06.950Z,100264.17
2019-03-02T13:07:54.831Z,100267.61
2019-03-02T13:11:01.416Z,100259.84
2019-03-02T13:13:58.819Z,100256.81
2019-03-02T13:16:50.082Z,100258.13
2019-03-02T13:19:40.238Z,100249.47
2019-03-02T13:22:43.869Z,100244.48
2019-03-02T13:25:50.485Z,100241.12
2019-03-02T13:28:25.125Z,100241.30
2019-03-02T13:31:28.740Z,100233.89
2019-03-02T13:34:15.340Z,100227.98
2019-03-02T13:37:21.706Z,100228.03
2019-03-02T13:40:16.057Z,100228.46
2019-03-02T13:43:04.746Z,100223.42
2019-03-02T13:45:55.073Z,100232.25
2019-03-02T13:48:42.297Z,100236.56
2019-03-02T13:51:42.523Z,100226.73
2019-03-02T13:54:17.607Z,100230.59
2019-03-02T13:57:05.903Z,100225.03
2019-03-02T13:59:54.343Z,100225.53
2019-03-02T14:02:41.451Z,100227.24
2019-03-02T14:05:29.747Z,100223.55
2019-03-02T14:08:24.108Z,100227.31
2019-03-02T14:11:12.337Z,100234.02
2019-03-02T14:14:03.636Z,100230.25
2019-03-02T14:16:55.311Z,100229.98
2019-03-02T14:19:42.008Z,100228.55
2019-03-02T14:22:30.080Z,100231.38
2019-03-02T14:25:19.085Z,100225.58
2019-03-02T14:28:04.320Z,100226.32
2019-03-02T14:30:42.868Z,100216.27
2019-03-02T14:33:18.296Z,100211.30
2019-03-02T14:35:58.529Z,100208.16
2019-03-02T14:38:40.418Z,100210.59
2019-03-02T14:41:28.701Z,100211.48
2019-03-02T14:44:05.050Z,100210.91
2019-03-02T14:46:50.380Z,100206.80
2019-03-02T14:49:43.131Z,100199.19
2019-03-02T14:52:33.316Z,100194.25
2019-03-02T14:55:20.480Z,100194.81
2019-03-02T14:58:00.217Z,100187.69
2019-03-02T15:00:47.644Z,100189.00
2019-03-02T15:03:35.867Z,100181.30
2019-03-02T15:06:22.811Z,100181.50
2019-03-02T15:09:08.813Z,100181.16
2019-03-02T15:12:07.569Z,100181.66
2019-03-02T15:14:45.966Z,100179.97
2019-03-02T15:17:40.282Z,100186.19
2019-03-02T15:20:40.790Z,100176.64
2019-03-02T15:23:22.732Z,100176.57
2019-03-02T15:26:08.816Z,100168.12
2019-03-02T15:28:43.629Z,100166.14
2019-03-02T15:31:30.977Z,100174.82
2019-03-02T15:34:19.410Z,100166.64
2019-03-02T15:37:08.027Z,100172.75
2019-03-02T15:40:06.682Z,100165.28
2019-03-02T15:42:49.524Z,100168.24
2019-03-02T15:45:29.648Z,100165.64
2019-03-02T15:48:16.699Z,100167.38
2019-03-02T15:51:14.195Z,100161.39
2019-03-02T15:54:08.210Z,100166.80
2019-03-02T15:57:02.459Z,100146.53
2019-03-02T15:59:55.655Z,100152.02
2019-03-02T16:02:43.883Z,100145.39
2019-03-02T16:05:22.090Z,100150.41
2019-03-02T16:08:10.643Z,100153.89
2019-03-02T16:10:58.977Z,100159.94
2019-03-02T16:13:59.988Z,100157.58
2019-03-02T16:16:47.916Z,100152.91
2019-03-02T16:19:36.191Z,100156.68
2019-03-02T16:22:13.961Z,100148.37
2019-03-02T16:24:52.762Z,100145.48
2019-03-02T16:27:43.793Z,100152.95
2019-03-02T16:30:23.112Z,100152.59
2019-03-02T16:33:05.720Z,100155.05
2019-03-02T16:36:06.122Z,100159.09
2019-03-02T16:38:54.407Z,100169.08
2019-03-02T16:41:41.286Z,100174.34
2019-03-02T16:44:30.336Z,100180.66
2019-03-02T16:47:33.904Z,100177.20
2019-03-02T16:50:18.281Z,100185.16
2019-03-02T16:53:16.054Z,100193.73
2019-03-02T16:56:08.285Z,100195.42
2019-03-02T16:59:11.651Z,100202.56
2019-03-02T17:02:09.110Z,100208.94
2019-03-02T17:04:51.454Z,100215.30
2019-03-02T17:07:31.364Z,100210.95
2019-03-02T17:10:11.467Z,100205.64
2019-03-02T17:12:58.989Z,100208.73
2019-03-02T17:15:48.596Z,100208.92
2019-03-02T17:18:26.940Z,100219.12
2019-03-02T17:21:21.696Z,100212.48
2019-03-02T17:24:13.032Z,100217.19
2019-03-02T17:26:49.388Z,100222.48
2019-03-02T17:29:31.735Z,100214.27
2019-03-02T17:32:14.008Z,100204.53
2019-03-02T17:35:21.164Z,100215.05
2019-03-02T17:38:13.174Z,100218.27
2019-03-02T17:41:07.401Z,100217.37
2019-03-02T17:43:57.242Z,100213.17
2019-03-02T17:46:51.786Z,100214.27
2019-03-02T17:49:33.722Z,100216.29
2019-03-02T17:52:20.965Z,100231.20
2019-03-02T17:55:07.923Z,100230.81
2019-03-02T17:58:08.535Z,100240.69
2019-03-02T18:00:56.971Z,100243.66
2019-03-02T18:03:51.903Z,100243.95
2019-03-02T18:06:29.885Z,100237.63
2019-03-02T18:09:24.062Z,100233.34
2019-03-02T18:12:17.296Z,100247.03
2019-03-02T18:15:11.394Z,100243.56
2019-03-02T18:18:00.887Z,100250.47
2019-03-02T18:20:31.349Z,100240.92
2019-03-02T18:23:00.825Z,100236.54
2019-03-02T18:25:30.220Z,100242.33
2019-03-02T18:27:59.670Z,100246.14
2019-03-02T18:30:29.166Z,100249.50
2019-03-02T18:33:16.047Z,100247.23
2019-03-02T18:35:45.522Z,100254.79
2019-03-02T18:38:14.872Z,100258.09
2019-03-02T18:40:44.317Z,100254.64
2019-03-02T18:43:13.700Z,100255.96
2019-03-02T18:45:43.135Z,100259.19
2019-03-02T18:48:30.071Z,100254.14
2019-03-02T18:51:08.073Z,100257.36
2019-03-02T18:53:38.133Z,100254.28
2019-03-02T18:56:07.535Z,100257.30
2019-03-02T18:58:36.912Z,100264.13
2019-03-02T19:01:06.305Z,100271.34
2019-03-02T19:03:35.674Z,100270.02
2019-03-02T19:06:05.102Z,100267.14
2019-03-02T19:08:34.428Z,100265.57
2019-03-02T19:11:03.884Z,100265.74
2019-03-02T19:13:33.221Z,100260.67
2019-03-02T19:16:02.706Z,100252.67
2019-03-02T19:18:32.144Z,100262.34
2019-03-02T19:21:01.545Z,100250.41
2019-03-02T19:23:30.902Z,100255.22
2019-03-02T19:26:00.369Z,100266.89
2019-03-02T19:28:29.703Z,100259.52
2019-03-02T19:30:59.123Z,100260.61
2019-03-02T19:33:28.494Z,100259.56
2019-03-02T19:35:57.895Z,100252.89
2019-03-02T19:38:27.250Z,100255.73
2019-03-02T19:40:56.696Z,100261.79
2019-03-02T19:43:26.114Z,100262.79
2019-03-02T19:45:55.524Z,100268.06
2019-03-02T19:48:24.863Z,100259.70
2019-03-02T19:50:54.300Z,100255.33
2019-03-02T19:53:23.961Z,100253.74
2019-03-02T19:55:53.453Z,100247.42
2019-03-02T19:58:22.801Z,100250.59
2019-03-02T20:00:52.444Z,100253.05
2019-03-02T20:03:21.948Z,100250.30
2019-03-02T20:05:51.553Z,100252.50
2019-03-02T20:08:21.185Z,100253.98
2019-03-02T20:10:50.952Z,100246.51
2019-03-02T20:13:20.520Z,100244.95
2019-03-02T20:15:51.096Z,100242.16
2019-03-02T20:18:21.181Z,100243.20
2019-03-02T20:20:50.682Z,100248.36
2019-03-02T20:23:21.613Z,100249.88
2019-03-02T20:25:51.290Z,100243.95
2019-03-02T20:28:20.965Z,100247.33
2019-03-02T20:30:51.057Z,100253.20
2019-03-02T20:33:21.978Z,100253.69
2019-03-02T20:35:52.673Z,100255.66
2019-03-02T20:38:22.516Z,100259.43
2019-03-02T20:40:53.120Z,100264.07
2019-03-02T20:43:23.599Z,100273.67
2019-03-02T20:45:54.463Z,100270.06
2019-03-02T20:48:24.565Z,100267.87
2019-03-02T20:50:54.685Z,100266.88
2019-03-02T20:53:24.369Z,100277.27
2019-03-02T20:55:55.374Z,100267.87
2019-03-02T20:58:25.643Z,100267.42
2019-03-02T21:00:55.394Z,100272.38
2019-03-02T21:03:24.984Z,100276.52
2019-03-02T21:05:54.931Z,100271.09
2019-03-02T21:08:24.534Z,100269.31
2019-03-02T21:10:54.314Z,100273.52
2019-03-02T21:13:23.950Z,100271.35
2019-03-02T21:15:53.727Z,100252.41
2019-03-02T21:18:23.389Z,100250.23
2019-03-02T21:20:53.236Z,100251.52
2019-03-02T21:23:23.021Z,100264.02
2019-03-02T21:25:52.664Z,100262.53
2019-03-02T21:28:23.057Z,100266.25
2019-03-02T21:30:53.084Z,100270.94
2019-03-02T21:33:23.304Z,100272.69
2019-03-02T21:35:53.318Z,100281.23
2019-03-02T21:38:23.161Z,100273.95
2019-03-02T21:40:53.437Z,100281.48
2019-03-02T21:43:23.357Z,100280.84
2019-03-02T21:45:54.223Z,100283.41
2019-03-02T21:48:24.334Z,100285.26
2019-03-02T21:50:54.553Z,100279.90
2019-03-02T21:53:25.693Z,100284.03
2019-03-02T21:55:55.812Z,100277.01
2019-03-02T21:58:25.935Z,100274.29
2019-03-02T22:00:57.071Z,100275.45
2019-03-02T22:03:27.298Z,100281.94
2019-03-02T22:05:57.314Z,100276.84
2019-03-02T22:08:27.439Z,100267.07
2019-03-02T22:11:01.769Z,100269.11
2019-03-02T22:13:31.468Z,100262.77
2019-03-02T22:16:01.222Z,100268.92
2019-03-02T22:18:30.819Z,100269.42
2019-03-02T22:21:01.188Z,100270.84
2019-03-02T22:23:30.714Z,100274.78
2019-03-02T22:26:00.338Z,100270.50
2019-03-02T22:28:30.717Z,100272.77
2019-03-02T22:31:00.874Z,100268.70
2019-03-02T22:33:31.028Z,100270.38
2019-03-02T22:36:01.087Z,100260.06
2019-03-02T22:38:31.305Z,100258.17
2019-03-02T22:41:01.449Z,100261.30
2019-03-02T22:43:31.095Z,100259.17
2019-03-02T22:46:00.723Z,100265.98
2019-03-02T22:48:30.376Z,100262.22
2019-03-02T22:50:59.962Z,100264.40
2019-03-02T22:53:29.587Z,100272.91
2019-03-02T22:55:59.263Z,100260.38
2019-03-02T22:58:33.619Z,100267.48
2019-03-02T23:01:39.931Z,100264.02
2019-03-02T23:04:09.528Z,100267.38
2019-03-02T23:06:39.176Z,100259.56
2019-03-02T23:09:11.500Z,100254.08
2019-03-02T23:11:41.178Z,100258.14
2019-03-02T23:14:10.825Z,100258.98
2019-03-02T23:16:40.486Z,100250.81
2019-03-02T23:19:10.137Z,100252.54
2019-03-02T23:21:39.810Z,100251.80
2019-03-02T23:24:10.472Z,100256.83
2019-03-02T23:26:40.140Z,100257.91
2019-03-02T23:29:09.688Z,100253.21
2019-03-02T23:31:39.452Z,100247.48
2019-03-02T23:34:08.989Z,100247.84
2019-03-02T23:36:38.676Z,100258.35
2019-03-02T23:39:08.332Z,100258.78
2019-03-02T23:41:37.993Z,100259.80
2019-03-02T23:44:07.643Z,100251.20
2019-03-02T23:46:37.321Z,100247.52
2019-03-02T23:49:07.086Z,100242.56
2019-03-02T23:51:36.818Z,100242.30
2019-03-02T23:54:06.387Z,100234.20
2019-03-02T23:56:36.058Z,100239.01
2019-03-02T23:59:05.690Z,100243.55
